Time;durP1;ratioP1;P1;durP2;ratioP2;P2;SDS_P1;SDS_P2;PMS_P1;PMS_P2;Temp;Humidity;BMP_temperature;BMP_pressure;BME280_temperature;BME280_humidity;BME280_pressure;Samples;Min_cycle;Max_cycle;Signal;HPM_P1;HPM_P2
2021/12/18 00:02:23;;;;;;;55.55;42.53;;;;;;;;;;5016998;28;20049;-57
2021/12/18 00:04:50;;;;;;;54.10;40.83;;;;;;;;;;5034182;28;20045;-59
2021/12/18 00:07:17;;;;;;;57.20;42.28;;;;;;;;;;5034137;28;20044;-59
2021/12/18 00:09:46;;;;;;;52.63;41.80;;;;;;;;;;5034284;28;20041;-59
2021/12/18 00:12:13;;;;;;;53.05;40.25;;;;;;;;;;5033762;28;20052;-59
2021/12/18 00:14:39;;;;;;;57.80;44.78;;;;;;;;;;5034288;28;20046;-59
2021/12/18 00:17:06;;;;;;;81.10;47.15;;;;;;;;;;5033944;28;20046;-59
2021/12/18 00:19:34;;;;;;;72.07;48.60;;;;;;;;;;5034323;28;20459;-59
2021/12/18 00:22:01;;;;;;;75.53;49.70;;;;;;;;;;5033228;28;20048;-59
2021/12/18 00:24:29;;;;;;;80.15;51.22;;;;;;;;;;5033801;28;20492;-56
2021/12/18 00:26:56;;;;;;;79.38;49.97;;;;;;;;;;5034280;28;20069;-59
2021/12/18 00:29:23;;;;;;;73.13;47.85;;;;;;;;;;5033480;28;20045;-59
2021/12/18 00:31:51;;;;;;;91.68;48.60;;;;;;;;;;5033909;28;20045;-59
2021/12/18 00:34:19;;;;;;;111.80;47.15;;;;;;;;;;5033847;28;20045;-59
2021/12/18 00:36:46;;;;;;;147.48;54.05;;;;;;;;;;5033848;28;20038;-59
2021/12/18 00:39:13;;;;;;;91.50;45.90;;;;;;;;;;5033730;28;20041;-59
2021/12/18 00:42:07;;;;;;;90.63;46.05;;;;;;;;;;5034117;28;20046;-59
2021/12/18 00:44:34;;;;;;;74.65;47.08;;;;;;;;;;5033936;28;20053;-59
2021/12/18 00:47:01;;;;;;;91.47;45.22;;;;;;;;;;5033741;28;20411;-58
2021/12/18 00:49:28;;;;;;;138.23;52.35;;;;;;;;;;5033937;28;20045;-59
2021/12/18 00:51:55;;;;;;;101.00;45.50;;;;;;;;;;5033489;28;20041;-58
2021/12/18 00:54:22;;;;;;;98.47;46.70;;;;;;;;;;5034078;28;20400;-58
2021/12/18 00:56:49;;;;;;;140.82;49.20;;;;;;;;;;5033705;28;20048;-59
2021/12/18 00:59:16;;;;;;;97.40;49.90;;;;;;;;;;5033991;28;20056;-57
2021/12/18 01:01:46;;;;;;;137.48;51.25;;;;;;;;;;5033335;28;20038;-58
2021/12/18 01:04:13;;;;;;;135.35;50.00;;;;;;;;;;5033627;28;20546;-58
2021/12/18 01:06:40;;;;;;;79.32;48.63;;;;;;;;;;5033214;28;20059;-55
2021/12/18 01:09:07;;;;;;;71.10;44.45;;;;;;;;;;5033927;28;20056;-59
2021/12/18 01:14:28;;;;;;;76.38;44.22;;;;;;;;;;5033515;28;20057;-59
2021/12/18 01:24:55;;;;;;;154.25;54.80;;;;;;;;;;5033313;28;20100;-58
2021/12/18 01:27:22;;;;;;;173.15;56.60;;;;;;;;;;5033099;28;20056;-58
2021/12/18 01:29:49;;;;;;;257.90;62.63;;;;;;;;;;5033016;28;20041;-58
2021/12/18 01:32:16;;;;;;;165.13;55.38;;;;;;;;;;5033528;28;20048;-58
2021/12/18 01:34:44;;;;;;;206.18;66.00;;;;;;;;;;5032762;28;20492;-58
2021/12/18 01:37:11;;;;;;;103.63;59.47;;;;;;;;;;5032931;28;20558;-58
2021/12/18 01:39:38;;;;;;;175.35;66.38;;;;;;;;;;5032851;28;20045;-59
2021/12/18 01:53:03;;;;;;;133.05;61.72;;;;;;;;;;5032813;28;20057;-58
2021/12/18 01:55:35;;;;;;;109.97;61.83;;;;;;;;;;5032324;28;20041;-58
2021/12/18 01:58:03;;;;;;;79.57;54.45;;;;;;;;;;5032978;28;20060;-58
2021/12/18 02:00:35;;;;;;;77.65;53.38;;;;;;;;;;5031898;28;20702;-55
2021/12/18 02:03:05;;;;;;;74.13;47.30;;;;;;;;;;5032722;28;20500;-58
2021/12/18 02:05:32;;;;;;;82.78;54.83;;;;;;;;;;5032339;28;20500;-58
2021/12/18 02:07:59;;;;;;;78.50;55.83;;;;;;;;;;5031836;28;20534;-58
2021/12/18 02:10:30;;;;;;;105.25;69.00;;;;;;;;;;5032656;28;20041;-57
2021/12/18 02:13:08;;;;;;;125.32;75.95;;;;;;;;;;5032342;28;20435;-57
2021/12/18 02:21:15;;;;;;;137.68;74.22;;;;;;;;;;5032913;28;20088;-58
2021/12/18 02:23:42;;;;;;;287.88;81.28;;;;;;;;;;5032400;28;20045;-57
2021/12/18 02:26:09;;;;;;;112.07;69.53;;;;;;;;;;5032641;28;20054;-58
2021/12/18 02:28:36;;;;;;;109.68;66.95;;;;;;;;;;5032300;28;20499;-59
2021/12/18 02:31:04;;;;;;;114.20;74.28;;;;;;;;;;5032606;28;20049;-58
2021/12/18 02:33:31;;;;;;;200.55;78.72;;;;;;;;;;5032425;28;20041;-58
2021/12/18 02:36:00;;;;;;;141.65;76.32;;;;;;;;;;5032411;28;20045;-58
2021/12/18 02:41:31;;;;;;;139.55;76.30;;;;;;;;;;5004547;28;20045;-58
2021/12/18 02:44:00;;;;;;;118.40;73.47;;;;;;;;;;5032625;28;20411;-58
2021/12/18 02:46:27;;;;;;;111.07;69.38;;;;;;;;;;5036374;28;20033;-58
2021/12/18 02:48:55;;;;;;;328.30;88.47;;;;;;;;;;5036386;28;20103;-57
2021/12/18 02:51:22;;;;;;;117.38;74.82;;;;;;;;;;5036118;28;20056;-58
2021/12/18 02:53:51;;;;;;;112.90;76.43;;;;;;;;;;5036285;28;20049;-58
2021/12/18 02:56:23;;;;;;;122.75;78.50;;;;;;;;;;5036109;28;20065;-58
2021/12/18 02:58:58;;;;;;;117.20;72.97;;;;;;;;;;5036175;28;20125;-58
2021/12/18 03:01:26;;;;;;;255.55;81.70;;;;;;;;;;5035928;28;20041;-58
2021/12/18 03:03:56;;;;;;;211.88;78.82;;;;;;;;;;5035973;28;20076;-57
2021/12/18 03:06:37;;;;;;;174.25;80.47;;;;;;;;;;5035595;28;20480;-58
2021/12/18 03:25:30;;;;;;;193.95;92.38;;;;;;;;;;5035717;28;20523;-58
2021/12/18 03:28:00;;;;;;;154.68;80.43;;;;;;;;;;5035055;28;20107;-57
2021/12/18 03:30:27;;;;;;;144.13;78.93;;;;;;;;;;5035597;28;20391;-58
2021/12/18 03:32:54;;;;;;;107.70;71.55;;;;;;;;;;5035216;28;20053;-56
2021/12/18 03:35:23;;;;;;;103.28;69.43;;;;;;;;;;5035835;28;20065;-57
2021/12/18 03:37:50;;;;;;;91.05;61.58;;;;;;;;;;5035482;28;20096;-57
2021/12/18 03:40:19;;;;;;;81.97;56.92;;;;;;;;;;5035601;28;20050;-57
2021/12/18 03:42:46;;;;;;;79.30;51.58;;;;;;;;;;5035493;28;20049;-57
2021/12/18 03:45:14;;;;;;;77.95;50.00;;;;;;;;;;5034961;28;20091;-58
2021/12/18 03:47:42;;;;;;;74.70;51.72;;;;;;;;;;5035103;28;20045;-57
2021/12/18 03:50:09;;;;;;;74.68;51.60;;;;;;;;;;5033497;28;20045;-58
2021/12/18 03:52:36;;;;;;;81.53;55.20;;;;;;;;;;5030500;28;20045;-58
2021/12/18 03:55:04;;;;;;;76.03;54.42;;;;;;;;;;5033486;28;20045;-57
2021/12/18 03:57:31;;;;;;;94.38;63.90;;;;;;;;;;5034155;28;20103;-57
2021/12/18 03:59:58;;;;;;;94.07;64.43;;;;;;;;;;5034346;28;20074;-57
2021/12/18 04:02:25;;;;;;;99.28;67.70;;;;;;;;;;5035010;28;20042;-56
2021/12/18 04:04:52;;;;;;;104.28;68.40;;;;;;;;;;5034826;28;20088;-58
2021/12/18 04:07:19;;;;;;;96.28;67.40;;;;;;;;;;5034632;28;20054;-56
2021/12/18 04:09:48;;;;;;;98.45;65.50;;;;;;;;;;5034833;28;20042;-57
2021/12/18 04:12:16;;;;;;;96.18;64.25;;;;;;;;;;5034336;28;20050;-57
2021/12/18 04:14:43;;;;;;;86.47;61.88;;;;;;;;;;5034834;28;20041;-57
2021/12/18 04:17:11;;;;;;;96.63;65.18;;;;;;;;;;5034439;28;20052;-56
2021/12/18 04:19:38;;;;;;;90.22;61.03;;;;;;;;;;5034733;28;20045;-57
2021/12/18 04:22:05;;;;;;;93.30;62.60;;;;;;;;;;5034093;28;20038;-57
2021/12/18 04:24:32;;;;;;;89.88;62.88;;;;;;;;;;5034342;28;20381;-59
2021/12/18 04:26:59;;;;;;;80.18;58.97;;;;;;;;;;5034049;28;20049;-57
2021/12/18 04:29:26;;;;;;;88.55;63.63;;;;;;;;;;5034280;28;20046;-57
2021/12/18 04:31:52;;;;;;;84.47;61.17;;;;;;;;;;5032971;28;20056;-57
2021/12/18 04:34:23;;;;;;;77.90;57.97;;;;;;;;;;5034180;28;20503;-57
2021/12/18 04:36:49;;;;;;;78.15;49.45;;;;;;;;;;5034502;28;20047;-57
2021/12/18 04:39:16;;;;;;;61.65;43.08;;;;;;;;;;5033651;28;20038;-57
2021/12/18 04:41:50;;;;;;;50.13;39.17;;;;;;;;;;5034010;28;20041;-56
2021/12/18 04:44:17;;;;;;;53.33;38.03;;;;;;;;;;5034010;28;20059;-57
2021/12/18 04:46:45;;;;;;;54.75;39.28;;;;;;;;;;5033947;28;20045;-57
2021/12/18 04:49:13;;;;;;;94.32;61.40;;;;;;;;;;5033718;28;20511;-56
2021/12/18 04:51:41;;;;;;;101.22;65.38;;;;;;;;;;5034020;28;20042;-57
2021/12/18 04:54:08;;;;;;;81.43;56.03;;;;;;;;;;5033469;28;20034;-57
2021/12/18 04:56:35;;;;;;;84.20;55.83;;;;;;;;;;5033741;28;20045;-57
2021/12/18 04:59:03;;;;;;;84.55;62.08;;;;;;;;;;5033961;28;20045;-58
2021/12/18 05:01:36;;;;;;;81.20;58.10;;;;;;;;;;5033840;28;20443;-58
2021/12/18 05:04:05;;;;;;;87.55;59.15;;;;;;;;;;5033705;28;20037;-57
2021/12/18 05:06:35;;;;;;;85.22;59.08;;;;;;;;;;5033296;28;20042;-57
2021/12/18 05:09:03;;;;;;;79.88;56.60;;;;;;;;;;5033449;28;20444;-58
2021/12/18 05:11:30;;;;;;;92.22;59.35;;;;;;;;;;5033741;28;20044;-58
2021/12/18 05:13:57;;;;;;;90.78;59.17;;;;;;;;;;5033799;28;20051;-57
2021/12/18 05:16:25;;;;;;;87.68;56.20;;;;;;;;;;5033168;28;20076;-58
2021/12/18 05:18:52;;;;;;;90.47;59.50;;;;;;;;;;5033857;28;20049;-57
2021/12/18 05:21:19;;;;;;;84.50;55.83;;;;;;;;;;5032986;28;20038;-58
2021/12/18 05:23:46;;;;;;;91.75;58.85;;;;;;;;;;5033591;28;20041;-58
2021/12/18 05:26:12;;;;;;;87.72;57.78;;;;;;;;;;5032898;28;20049;-58
2021/12/18 05:28:39;;;;;;;83.95;57.60;;;;;;;;;;5033030;28;20048;-56
2021/12/18 05:31:09;;;;;;;87.18;61.17;;;;;;;;;;5033597;28;20037;-57
2021/12/18 05:33:36;;;;;;;101.80;62.60;;;;;;;;;;5022747;22;20057;-59
2021/12/18 05:36:13;;;;;;;96.97;63.25;;;;;;;;;;5011795;28;20042;-57
2021/12/18 05:38:40;;;;;;;118.10;66.93;;;;;;;;;;5013088;28;20046;-57
2021/12/18 05:41:08;;;;;;;109.10;64.95;;;;;;;;;;5013509;28;20041;-56
2021/12/18 05:43:35;;;;;;;131.07;65.85;;;;;;;;;;5013026;28;20049;-57
2021/12/18 05:46:02;;;;;;;109.05;60.50;;;;;;;;;;5006138;28;20050;-57
2021/12/18 05:48:29;;;;;;;102.07;58.30;;;;;;;;;;4993300;28;20104;-57
2021/12/18 05:50:56;;;;;;;105.35;63.90;;;;;;;;;;4993684;28;20043;-57
2021/12/18 05:53:23;;;;;;;133.05;66.07;;;;;;;;;;4992750;28;20046;-57
2021/12/18 05:55:49;;;;;;;94.13;62.15;;;;;;;;;;4983195;28;20507;-57
2021/12/18 05:58:16;;;;;;;113.82;63.30;;;;;;;;;;4987430;28;20054;-57
2021/12/18 06:00:44;;;;;;;103.72;59.50;;;;;;;;;;4993322;28;20053;-58
2021/12/18 06:03:11;;;;;;;142.60;64.18;;;;;;;;;;4993490;28;20408;-57
2021/12/18 06:05:38;;;;;;;98.32;62.60;;;;;;;;;;4992769;28;20046;-53
2021/12/18 06:08:10;;;;;;;120.90;64.43;;;;;;;;;;4993643;28;20050;-56
2021/12/18 06:10:37;;;;;;;99.72;62.97;;;;;;;;;;4993187;28;20046;-55
2021/12/18 06:13:04;;;;;;;100.18;59.03;;;;;;;;;;4976541;28;20039;-56
2021/12/18 06:15:32;;;;;;;93.25;58.15;;;;;;;;;;4993461;28;20051;-56
2021/12/18 06:17:59;;;;;;;92.20;58.17;;;;;;;;;;4993409;28;20085;-56
2021/12/18 06:20:27;;;;;;;84.88;53.90;;;;;;;;;;4992317;28;20038;-52
2021/12/18 06:22:55;;;;;;;73.63;51.08;;;;;;;;;;4992943;28;20098;-56
2021/12/18 06:25:22;;;;;;;75.43;47.50;;;;;;;;;;4991594;28;20460;-59
2021/12/18 06:27:49;;;;;;;71.18;47.00;;;;;;;;;;4989654;28;20047;-56
2021/12/18 06:30:18;;;;;;;66.43;44.20;;;;;;;;;;4988457;28;20054;-57
2021/12/18 06:32:45;;;;;;;69.20;44.17;;;;;;;;;;4988917;28;20054;-57
2021/12/18 06:35:12;;;;;;;68.38;41.40;;;;;;;;;;4989837;28;20054;-57
2021/12/18 06:37:39;;;;;;;59.92;41.22;;;;;;;;;;4989762;28;20373;-56
2021/12/18 06:40:07;;;;;;;59.70;41.95;;;;;;;;;;4990341;28;20046;-57
2021/12/18 06:42:37;;;;;;;57.42;38.42;;;;;;;;;;4990171;28;20050;-56
2021/12/18 06:45:04;;;;;;;68.38;40.83;;;;;;;;;;4985591;28;20043;-56
2021/12/18 06:47:31;;;;;;;54.35;33.67;;;;;;;;;;4980320;28;20050;-57
2021/12/18 06:49:59;;;;;;;48.63;34.60;;;;;;;;;;4986528;28;20089;-58
2021/12/18 06:52:26;;;;;;;46.63;33.25;;;;;;;;;;4984375;28;20050;-57
2021/12/18 06:54:52;;;;;;;57.22;36.10;;;;;;;;;;4985375;28;20057;-56
2021/12/18 06:57:22;;;;;;;57.78;34.13;;;;;;;;;;4988260;28;20049;-56
2021/12/18 06:59:50;;;;;;;51.30;35.53;;;;;;;;;;4987699;28;20117;-53
2021/12/18 07:02:17;;;;;;;51.88;35.10;;;;;;;;;;4987158;28;20416;-58
2021/12/18 07:04:45;;;;;;;57.05;31.75;;;;;;;;;;4987897;28;20043;-56
2021/12/18 07:07:12;;;;;;;44.13;30.88;;;;;;;;;;4989816;28;20056;-57
2021/12/18 07:09:38;;;;;;;45.55;30.70;;;;;;;;;;4986029;28;20038;-57
2021/12/18 07:12:06;;;;;;;69.05;33.65;;;;;;;;;;4974811;28;20050;-57
2021/12/18 07:14:33;;;;;;;52.33;30.60;;;;;;;;;;4977695;28;20046;-57
2021/12/18 07:17:00;;;;;;;53.75;29.63;;;;;;;;;;4977032;28;20050;-57
2021/12/18 07:19:27;;;;;;;61.17;32.90;;;;;;;;;;4976810;28;20038;-57
2021/12/18 07:21:54;;;;;;;49.88;33.53;;;;;;;;;;4977283;28;20093;-57
2021/12/18 07:24:21;;;;;;;49.05;32.28;;;;;;;;;;4958354;28;20043;-57
2021/12/18 07:26:48;;;;;;;111.10;39.92;;;;;;;;;;4975187;28;20047;-54
2021/12/18 07:29:14;;;;;;;44.38;31.30;;;;;;;;;;4973632;28;20618;-55
2021/12/18 07:31:41;;;;;;;60.15;28.90;;;;;;;;;;4975733;28;20058;-55
2021/12/18 07:34:08;;;;;;;65.85;30.00;;;;;;;;;;4976148;28;20046;-56
2021/12/18 07:36:35;;;;;;;36.72;26.73;;;;;;;;;;4977687;28;20057;-57
2021/12/18 07:39:03;;;;;;;35.90;30.60;;;;;;;;;;4980978;28;20035;-57
2021/12/18 07:41:30;;;;;;;35.83;27.85;;;;;;;;;;4976250;28;20043;-56
2021/12/18 07:44:03;;;;;;;44.83;29.90;;;;;;;;;;4976381;28;20046;-56
2021/12/18 07:46:30;;;;;;;38.38;26.23;;;;;;;;;;4977165;28;20664;-54
2021/12/18 07:48:57;;;;;;;46.75;26.95;;;;;;;;;;4979093;28;20441;-57
2021/12/18 07:51:23;;;;;;;38.33;29.60;;;;;;;;;;4981355;28;20047;-56
2021/12/18 07:53:50;;;;;;;38.42;28.55;;;;;;;;;;4978277;28;20500;-57
2021/12/18 07:56:19;;;;;;;49.28;27.83;;;;;;;;;;4997510;28;20064;-57
2021/12/18 07:58:46;;;;;;;37.45;29.50;;;;;;;;;;4992416;28;20046;-54
2021/12/18 08:01:13;;;;;;;36.85;28.88;;;;;;;;;;4993064;28;20116;-54
2021/12/18 08:03:40;;;;;;;48.50;27.88;;;;;;;;;;4991761;28;20050;-53
2021/12/18 08:06:07;;;;;;;39.60;30.55;;;;;;;;;;4990614;28;20043;-55
2021/12/18 08:08:34;;;;;;;45.60;31.80;;;;;;;;;;4991999;28;20592;-57
2021/12/18 08:11:02;;;;;;;57.20;31.30;;;;;;;;;;4985213;28;20046;-56
2021/12/18 08:13:28;;;;;;;31.90;27.20;;;;;;;;;;4992070;28;20394;-54
2021/12/18 08:15:55;;;;;;;35.10;27.83;;;;;;;;;;4991489;28;20042;-56
2021/12/18 08:18:22;;;;;;;31.90;27.35;;;;;;;;;;4993416;28;20100;-54
2021/12/18 08:20:49;;;;;;;31.25;25.48;;;;;;;;;;4991730;28;20046;-56
2021/12/18 08:23:16;;;;;;;34.13;28.02;;;;;;;;;;4992277;28;20042;-55
2021/12/18 08:25:43;;;;;;;31.92;26.40;;;;;;;;;;4992801;28;20042;-56
2021/12/18 08:28:10;;;;;;;36.70;27.33;;;;;;;;;;4993781;28;20089;-52
2021/12/18 08:30:38;;;;;;;28.65;24.27;;;;;;;;;;4994773;28;20046;-55
2021/12/18 08:33:06;;;;;;;29.80;25.25;;;;;;;;;;4994547;28;20056;-55
2021/12/18 08:35:33;;;;;;;31.73;26.05;;;;;;;;;;4995032;28;20418;-55
2021/12/18 08:38:02;;;;;;;29.35;25.38;;;;;;;;;;4994323;28;20050;-56
2021/12/18 08:40:29;;;;;;;26.95;24.05;;;;;;;;;;4994820;28;20046;-55
2021/12/18 08:42:56;;;;;;;30.77;25.13;;;;;;;;;;4994082;28;20046;-53
2021/12/18 08:45:23;;;;;;;28.40;25.05;;;;;;;;;;4994742;28;20158;-52
2021/12/18 08:47:51;;;;;;;27.30;23.77;;;;;;;;;;4993120;28;20045;-55
2021/12/18 08:50:19;;;;;;;26.85;23.92;;;;;;;;;;4992437;28;20046;-55
2021/12/18 08:52:48;;;;;;;29.85;24.75;;;;;;;;;;4993191;28;20047;-54
2021/12/18 08:55:17;;;;;;;31.58;26.67;;;;;;;;;;4992734;28;20046;-54
2021/12/18 08:57:44;;;;;;;31.83;26.83;;;;;;;;;;4993177;28;20393;-55
2021/12/18 09:00:14;;;;;;;31.15;26.17;;;;;;;;;;4993658;28;20445;-55
2021/12/18 09:02:41;;;;;;;37.17;29.45;;;;;;;;;;4994462;28;20433;-55
2021/12/18 09:05:09;;;;;;;33.42;28.33;;;;;;;;;;4994267;28;20125;-58
2021/12/18 09:07:37;;;;;;;42.42;31.27;;;;;;;;;;4996710;28;20082;-55
2021/12/18 09:10:06;;;;;;;32.97;27.63;;;;;;;;;;5014243;28;20444;-51
2021/12/18 09:12:33;;;;;;;34.25;26.92;;;;;;;;;;5013496;28;20460;-51
2021/12/18 09:15:00;;;;;;;31.02;25.92;;;;;;;;;;5013893;28;20361;-55
2021/12/18 09:17:27;;;;;;;41.65;31.30;;;;;;;;;;5013176;28;20068;-55
2021/12/18 09:19:54;;;;;;;40.72;32.72;;;;;;;;;;5013362;28;20045;-56
2021/12/18 09:22:23;;;;;;;37.60;29.85;;;;;;;;;;5013425;28;20041;-57
2021/12/18 09:24:50;;;;;;;45.63;30.15;;;;;;;;;;5012734;28;20042;-56
2021/12/18 09:27:17;;;;;;;46.45;32.90;;;;;;;;;;4993569;28;20042;-56
2021/12/18 09:29:44;;;;;;;49.55;34.28;;;;;;;;;;4994056;28;20053;-55
2021/12/18 09:32:11;;;;;;;46.72;34.45;;;;;;;;;;4993815;28;20096;-55
2021/12/18 09:34:38;;;;;;;53.75;36.53;;;;;;;;;;4993803;28;20043;-55
2021/12/18 09:37:05;;;;;;;45.65;32.58;;;;;;;;;;4993911;28;20045;-56
2021/12/18 09:39:32;;;;;;;45.33;32.25;;;;;;;;;;5001125;28;20049;-55
2021/12/18 09:41:59;;;;;;;33.38;28.20;;;;;;;;;;5013167;28;20091;-56
2021/12/18 09:44:34;;;;;;;41.28;33.25;;;;;;;;;;5013191;28;20048;-55
2021/12/18 09:47:04;;;;;;;46.60;35.28;;;;;;;;;;5002441;28;20169;-54
2021/12/18 09:49:32;;;;;;;48.58;38.45;;;;;;;;;;4993351;28;20050;-55
2021/12/18 09:51:59;;;;;;;45.08;34.22;;;;;;;;;;4994140;28;20054;-54
2021/12/18 09:54:27;;;;;;;43.33;32.13;;;;;;;;;;4992602;28;20429;-56
2021/12/18 09:56:54;;;;;;;40.67;29.58;;;;;;;;;;4993756;28;20042;-56
2021/12/18 09:59:21;;;;;;;33.42;27.23;;;;;;;;;;4993755;28;20076;-53
2021/12/18 10:01:48;;;;;;;31.27;25.08;;;;;;;;;;4993466;28;20580;-55
2021/12/18 10:04:33;;;;;;;27.20;23.33;;;;;;;;;;4994051;28;20042;-55
2021/12/18 10:07:22;;;;;;;30.40;26.45;;;;;;;;;;4993802;28;20043;-55
2021/12/18 10:09:51;;;;;;;31.20;27.90;;;;;;;;;;4993487;28;20050;-55
2021/12/18 10:12:30;;;;;;;28.48;23.95;;;;;;;;;;4993042;28;20097;-54
2021/12/18 10:15:04;;;;;;;27.08;22.50;;;;;;;;;;4993641;28;20042;-55
2021/12/18 10:17:31;;;;;;;;;;;;;;;;;;4981795;28;20046;-55
2021/12/18 10:20:10;;;;;;;27.08;24.15;;;;;;;;;;4993386;28;19921;-55
2021/12/18 10:22:45;;;;;;;27.15;21.65;;;;;;;;;;4993022;28;20070;-56
2021/12/18 10:25:15;;;;;;;29.70;25.17;;;;;;;;;;4993597;28;20547;-55
2021/12/18 10:27:58;;;;;;;28.00;23.95;;;;;;;;;;4993876;28;20133;-56
2021/12/18 10:30:25;;;;;;;28.30;22.77;;;;;;;;;;4993623;28;20046;-55
2021/12/18 10:32:55;;;;;;;34.83;25.83;;;;;;;;;;4993161;28;20053;-56
2021/12/18 10:35:50;;;;;;;35.75;27.02;;;;;;;;;;4994044;28;20125;-56
2021/12/18 10:38:36;;;;;;;39.77;26.87;;;;;;;;;;4993257;28;20081;-56
2021/12/18 10:41:25;;;;;;;37.17;26.98;;;;;;;;;;4993435;28;20069;-56
2021/12/18 10:43:57;;;;;;;37.60;26.70;;;;;;;;;;4992798;28;20050;-56
2021/12/18 10:46:26;;;;;;;34.20;27.17;;;;;;;;;;4993118;28;20137;-56
2021/12/18 10:48:57;;;;;;;35.00;27.23;;;;;;;;;;4992810;28;20101;-55
2021/12/18 10:51:25;;;;;;;37.25;27.30;;;;;;;;;;4993485;28;20049;-56
2021/12/18 10:53:52;;;;;;;40.90;28.48;;;;;;;;;;4992680;28;20049;-55
2021/12/18 10:56:32;;;;;;;34.45;24.35;;;;;;;;;;4975627;28;20513;-55
2021/12/18 10:58:59;;;;;;;39.67;28.50;;;;;;;;;;4993345;28;20053;-54
2021/12/18 11:01:26;;;;;;;32.70;26.85;;;;;;;;;;4993139;28;20460;-55
2021/12/18 11:03:53;;;;;;;40.58;30.85;;;;;;;;;;4993342;28;20038;-56
2021/12/18 11:06:28;;;;;;;47.13;31.45;;;;;;;;;;4983561;28;20493;-56
2021/12/18 11:09:06;;;;;;;38.88;29.73;;;;;;;;;;4981625;28;20039;-56
2021/12/18 11:14:15;;;;;;;42.90;31.23;;;;;;;;;;4982790;28;20054;-55
2021/12/18 11:16:45;;;;;;;48.17;32.15;;;;;;;;;;4979763;28;20127;-56
2021/12/18 11:19:13;;;;;;;46.35;31.30;;;;;;;;;;4979086;28;20520;-55
2021/12/18 11:21:46;;;;;;;43.72;30.80;;;;;;;;;;4981712;28;20054;-55
2021/12/18 11:24:17;;;;;;;49.92;32.63;;;;;;;;;;4980456;28;20043;-54
2021/12/18 11:26:57;;;;;;;50.17;33.33;;;;;;;;;;4980386;28;20049;-55
2021/12/18 11:29:40;;;;;;;52.45;33.28;;;;;;;;;;4983862;28;20049;-56
2021/12/18 11:32:19;;;;;;;44.35;32.50;;;;;;;;;;4982205;28;20044;-54
2021/12/18 11:34:48;;;;;;;57.58;35.92;;;;;;;;;;4981664;28;20490;-56
2021/12/18 11:37:17;;;;;;;51.80;34.88;;;;;;;;;;4980975;28;20049;-49
2021/12/18 11:39:45;;;;;;;59.50;37.17;;;;;;;;;;4962769;28;20039;-55
2021/12/18 11:42:13;;;;;;;52.90;34.17;;;;;;;;;;4980922;28;20077;-56
2021/12/18 11:44:42;;;;;;;46.50;31.70;;;;;;;;;;4990135;28;20089;-52
2021/12/18 11:47:33;;;;;;;45.00;30.58;;;;;;;;;;4981227;28;20046;-56
2021/12/18 11:50:20;;;;;;;47.88;29.40;;;;;;;;;;4979136;28;20043;-56
2021/12/18 11:53:31;;;;;;;40.97;27.80;;;;;;;;;;4979790;28;20082;-55
2021/12/18 11:56:00;;;;;;;43.22;30.38;;;;;;;;;;4930248;29;20047;-56
2021/12/18 11:58:33;;;;;;;41.47;28.00;;;;;;;;;;4977891;28;20049;-56
2021/12/18 12:01:15;;;;;;;43.20;30.83;;;;;;;;;;4985617;28;20047;-56
2021/12/18 12:03:50;;;;;;;50.33;32.08;;;;;;;;;;4993639;28;20434;-56
2021/12/18 12:06:24;;;;;;;;;;;;;;;;;;4992275;28;20117;-56
2021/12/18 12:09:15;;;;;;;55.47;32.42;;;;;;;;;;4990543;28;19932;-56
2021/12/18 12:12:01;;;;;;;50.33;33.08;;;;;;;;;;4991442;28;20504;-57
2021/12/18 12:14:29;;;;;;;60.78;33.40;;;;;;;;;;4992632;28;20038;-60
2021/12/18 12:17:04;;;;;;;60.40;32.65;;;;;;;;;;4991951;28;20482;-57
2021/12/18 12:19:34;;;;;;;56.95;34.60;;;;;;;;;;4992537;28;20042;-60
2021/12/18 12:22:07;;;;;;;60.35;35.15;;;;;;;;;;4989639;28;20042;-59
2021/12/18 12:24:54;;;;;;;46.47;29.02;;;;;;;;;;4992888;28;20038;-58
2021/12/18 12:27:38;;;;;;;49.80;32.25;;;;;;;;;;4990368;28;20049;-58
2021/12/18 12:30:36;;;;;;;48.40;32.13;;;;;;;;;;4990783;28;20042;-59
2021/12/18 12:33:07;;;;;;;53.75;32.97;;;;;;;;;;4990545;28;20141;-58
2021/12/18 12:35:54;;;;;;;54.28;32.78;;;;;;;;;;4994056;28;20035;-58
2021/12/18 12:38:41;;;;;;;55.47;36.38;;;;;;;;;;4991409;28;20389;-58
2021/12/18 12:41:26;;;;;;;52.70;33.75;;;;;;;;;;4989728;28;20121;-58
2021/12/18 12:43:57;;;;;;;54.40;32.95;;;;;;;;;;4978351;28;20054;-58
2021/12/18 12:46:25;;;;;;;54.47;35.10;;;;;;;;;;4994487;28;20035;-59
2021/12/18 12:49:16;;;;;;;62.13;37.75;;;;;;;;;;4994422;28;20370;-59
2021/12/18 12:51:59;;;;;;;56.55;35.13;;;;;;;;;;4994430;28;20152;-58
2021/12/18 12:54:53;;;;;;;63.55;36.80;;;;;;;;;;4993721;28;20048;-59
2021/12/18 12:57:23;;;;;;;63.03;37.70;;;;;;;;;;4993036;28;20047;-60
2021/12/18 13:00:05;;;;;;;50.28;34.10;;;;;;;;;;4993905;28;20424;-56
2021/12/18 13:02:56;;;;;;;57.92;35.92;;;;;;;;;;4994418;28;20046;-58
2021/12/18 13:05:25;;;;;;;56.00;33.78;;;;;;;;;;4987540;28;20050;-60
2021/12/18 13:07:57;;;;;;;65.45;38.88;;;;;;;;;;4992537;28;20045;-59
2021/12/18 13:10:28;;;;;;;68.93;38.55;;;;;;;;;;4992048;28;20046;-59
2021/12/18 13:13:03;;;;;;;63.53;36.33;;;;;;;;;;4992095;28;20054;-60
2021/12/18 13:15:53;;;;;;;61.83;38.25;;;;;;;;;;4992818;28;20049;-61
2021/12/18 13:18:27;;;;;;;61.90;37.03;;;;;;;;;;4992937;28;20413;-59
2021/12/18 13:20:57;;;;;;;60.13;38.40;;;;;;;;;;4994362;28;20127;-59
2021/12/18 13:23:51;;;;;;;66.38;42.33;;;;;;;;;;4993994;28;20042;-60
2021/12/18 13:26:40;;;;;;;63.15;37.65;;;;;;;;;;4994151;28;20108;-56
2021/12/18 13:29:13;;;;;;;65.28;40.03;;;;;;;;;;4991271;28;20042;-58
2021/12/18 13:31:49;;;;;;;62.38;38.00;;;;;;;;;;4988020;28;20058;-58
2021/12/18 13:34:22;;;;;;;67.45;39.88;;;;;;;;;;4984988;28;20047;-59
2021/12/18 13:37:03;;;;;;;67.57;41.03;;;;;;;;;;4993022;28;20050;-59
2021/12/18 13:39:41;;;;;;;67.55;40.58;;;;;;;;;;4993401;28;20054;-58
2021/12/18 13:42:14;;;;;;;55.97;37.88;;;;;;;;;;4993367;28;20042;-60
2021/12/18 13:44:44;;;;;;;66.70;38.17;;;;;;;;;;4993655;28;20556;-60
2021/12/18 13:47:16;;;;;;;68.20;39.38;;;;;;;;;;4993707;28;20050;-58
2021/12/18 13:49:44;;;;;;;63.08;37.97;;;;;;;;;;4993050;28;20064;-58
2021/12/18 13:52:51;;;;;;;70.55;40.42;;;;;;;;;;4993182;28;20038;-59
2021/12/18 13:55:54;;;;;;;74.50;41.75;;;;;;;;;;4993868;28;20087;-59
2021/12/18 13:58:27;;;;;;;65.75;42.25;;;;;;;;;;4993281;28;20517;-59
2021/12/18 14:00:57;;;;;;;73.00;40.70;;;;;;;;;;4991880;28;20050;-58
2021/12/18 14:03:33;;;;;;;67.85;42.17;;;;;;;;;;4993593;28;20078;-59
2021/12/18 14:06:06;;;;;;;70.35;39.30;;;;;;;;;;4993088;28;20104;-59
2021/12/18 14:08:35;;;;;;;65.65;40.78;;;;;;;;;;4992937;28;20042;-59
2021/12/18 14:11:06;;;;;;;61.30;39.72;;;;;;;;;;4993214;28;20045;-60
2021/12/18 14:13:49;;;;;;;65.72;38.55;;;;;;;;;;4984708;28;20058;-59
2021/12/18 14:16:17;;;;;;;57.53;36.45;;;;;;;;;;4993532;28;20039;-60
2021/12/18 14:18:51;;;;;;;67.05;36.97;;;;;;;;;;4992922;28;20053;-69
2021/12/18 14:21:19;;;;;;;76.28;41.08;;;;;;;;;;4993151;28;20050;-69
2021/12/18 14:23:46;;;;;;;64.35;40.50;;;;;;;;;;4992841;28;20042;-72
2021/12/18 14:26:24;;;;;;;64.72;38.70;;;;;;;;;;4993057;28;20047;-72
2021/12/18 14:28:57;;;;;;;72.75;37.47;;;;;;;;;;5011262;28;20053;-72
2021/12/18 14:31:32;;;;;;;69.22;39.67;;;;;;;;;;4992524;28;20042;-72
2021/12/18 14:34:08;;;;;;;75.57;40.55;;;;;;;;;;4992615;28;20058;-69
2021/12/18 14:36:56;;;;;;;80.45;41.38;;;;;;;;;;4993341;28;20404;-68
2021/12/18 14:39:39;;;;;;;82.80;45.97;;;;;;;;;;4992516;28;20137;-68
2021/12/18 14:42:16;;;;;;;62.00;39.35;;;;;;;;;;4995550;28;20053;-65
2021/12/18 14:44:45;;;;;;;68.43;38.78;;;;;;;;;;4987357;28;20038;-67
2021/12/18 14:47:34;;;;;;;71.72;40.85;;;;;;;;;;4995943;28;20062;-66
2021/12/18 14:50:06;;;;;;;66.60;40.90;;;;;;;;;;5003728;28;20049;-65
2021/12/18 14:52:50;;;;;;;66.00;37.35;;;;;;;;;;5000930;28;20056;-66
2021/12/18 14:55:43;;;;;;;62.88;41.38;;;;;;;;;;4992020;28;20133;-67
2021/12/18 14:58:17;;;;;;;94.75;40.95;;;;;;;;;;4997956;28;20416;-64
2021/12/18 15:00:54;;;;;;;64.32;37.80;;;;;;;;;;4993076;28;20057;-67
2021/12/18 15:03:24;;;;;;;78.68;40.20;;;;;;;;;;4993390;28;20127;-68
2021/12/18 15:06:04;;;;;;;66.18;39.60;;;;;;;;;;4997676;28;20049;-68
2021/12/18 15:08:42;;;;;;;64.90;39.97;;;;;;;;;;4996862;28;20054;-69
2021/12/18 15:11:15;;;;;;;80.90;37.65;;;;;;;;;;5001159;28;20053;-68
2021/12/18 15:14:10;;;;;;;112.32;41.80;;;;;;;;;;5000867;28;20045;-68
2021/12/18 15:16:47;;;;;;;121.00;42.47;;;;;;;;;;4979295;28;20097;-68
2021/12/18 15:19:24;;;;;;;86.45;39.90;;;;;;;;;;4994470;28;20917;-68
2021/12/18 15:21:56;;;;;;;87.57;42.03;;;;;;;;;;4994483;28;20050;-63
2021/12/18 15:24:24;;;;;;;86.20;42.67;;;;;;;;;;4987488;28;20062;-67
2021/12/18 15:26:54;;;;;;;104.60;45.55;;;;;;;;;;4992892;28;20485;-67
2021/12/18 15:29:23;;;;;;;82.22;44.80;;;;;;;;;;4993840;28;20050;-66